Disclaimer

Please do not use the information listed here in-flight or in-navigation, as they are not provided to us by the airports but are provided by volunteers, so they might be outdated.

Search


Regions


Airport information page

Radio informations:
Tower (TWR) - 122.1 MHz
Ground (GND) - 121.95 MHz
Approach (APP) - 122.1 MHz

Airport informations:
Latitude: 38° 44' 51.97" N
Longitude: 041° 39' 40.45" E
Elevation: 4157 feet - 1267 meters
Operating hours: Remarks
Operating agency: Military-civil joint use airport
Timezone: UTC+2(+3DT) - Dates notified by NOTAM
Fuel: JP-8, SemiKeroscene MIL Spec T-83133, without icing inhibitor

Runway information:
11/29 - 11649 x 148 feet< - >3551 x 45 meters

Recent METARs:
LTCK 201250Z VRB02KT 9999 SCT040 BKN080 09/03 Q1022
LTCK 201250Z VRB02KT 9999 SCT040 BKN080 09/03 Q1022
LTCK 201250Z VRB02KT 9999 SCT040 BKN080 09/03 Q1022

Airport on the map: